createdAt,value
2023-03-07T00:00:53.170Z,100449.84
2023-03-07T00:03:21.941Z,100451.53
2023-03-07T00:05:50.010Z,100447.84
2023-03-07T00:08:17.813Z,100445.35
2023-03-07T00:10:45.798Z,100442.51
2023-03-07T00:13:13.575Z,100451.83
2023-03-07T00:15:41.695Z,100446.17
2023-03-07T00:18:09.508Z,100446.98
2023-03-07T00:20:37.399Z,100435.71
2023-03-07T00:23:06.078Z,100441.37
2023-03-07T00:25:33.972Z,100438.52
2023-03-07T00:28:01.844Z,100431.75
2023-03-07T00:30:29.798Z,100438.52
2023-03-07T00:32:57.709Z,100440.22
2023-03-07T00:35:25.549Z,100438.23
2023-03-07T00:37:53.339Z,100430.58
2023-03-07T00:40:21.318Z,100429.56
2023-03-07T00:42:49.113Z,100427.20
2023-03-07T00:45:16.907Z,100426.39
2023-03-07T00:47:44.644Z,100434.56
2023-03-07T00:50:12.663Z,100431.75
2023-03-07T00:52:40.490Z,100431.20
2023-03-07T00:55:09.003Z,100436.85
2023-03-07T00:57:36.764Z,100431.20
2023-03-07T01:00:05.131Z,100432.57
2023-03-07T01:02:32.887Z,100422.11
2023-03-07T01:05:00.661Z,100428.91
2023-03-07T01:07:28.464Z,100425.02
2023-03-07T01:09:56.229Z,100423.02
2023-03-07T01:12:23.967Z,100422.20
2023-03-07T01:14:52.213Z,100412.07
2023-03-07T01:17:20.019Z,100412.59
2023-03-07T01:19:47.850Z,100413.73
2023-03-07T01:22:15.646Z,100411.41
2023-03-07T01:24:43.335Z,100411.88
2023-03-07T01:27:11.141Z,100412.98
2023-03-07T01:29:38.939Z,100415.83
2023-03-07T01:32:06.932Z,100422.95
2023-03-07T01:34:34.730Z,100415.11
2023-03-07T01:37:02.467Z,100421.29
2023-03-07T01:39:30.317Z,100421.81
2023-03-07T01:41:58.104Z,100421.81
2023-03-07T01:44:26.913Z,100427.47
2023-03-07T01:46:58.671Z,100420.63
2023-03-07T01:49:29.342Z,100430.28
2023-03-07T01:52:03.933Z,100420.15
2023-03-07T01:54:32.522Z,100417.63
2023-03-07T01:57:00.442Z,100420.15
2023-03-07T01:59:33.786Z,100422.95
2023-03-07T02:02:04.759Z,100415.44
2023-03-07T02:04:44.467Z,100414.16
2023-03-07T02:07:12.295Z,100410.30
2023-03-07T02:09:40.026Z,100401.28
2023-03-07T02:12:08.149Z,100406.94
2023-03-07T02:14:35.969Z,100397.75
2023-03-07T02:17:05.103Z,100399.09
2023-03-07T02:19:47.108Z,100395.10
2023-03-07T02:22:18.944Z,100392.29
2023-03-07T02:25:07.404Z,100392.09
2023-03-07T02:27:36.174Z,100392.09
2023-03-07T02:30:05.464Z,100392.09
2023-03-07T02:32:33.393Z,100391.47
2023-03-07T02:35:01.319Z,100401.09
2023-03-07T02:37:34.292Z,100397.75
2023-03-07T02:40:07.133Z,100391.27
2023-03-07T02:42:36.040Z,100394.41
2023-03-07T02:45:06.038Z,100389.90
2023-03-07T02:47:33.854Z,100389.05
2023-03-07T02:50:01.578Z,100389.90
2023-03-07T02:52:29.842Z,100389.41
2023-03-07T02:54:57.797Z,100380.91
2023-03-07T02:57:25.683Z,100384.57
2023-03-07T02:59:53.554Z,100386.24
2023-03-07T03:02:21.372Z,100390.03
2023-03-07T03:04:49.159Z,100393.70
2023-03-07T03:07:17.022Z,100384.87
2023-03-07T03:09:44.765Z,100372.73
2023-03-07T03:12:13.121Z,100382.38
2023-03-07T03:14:40.817Z,100375.58
2023-03-07T03:17:08.573Z,100371.10
2023-03-07T03:19:36.342Z,100378.20
2023-03-07T03:22:04.442Z,100371.72
2023-03-07T03:24:32.206Z,100374.20
2023-03-07T03:27:00.148Z,100378.00
2023-03-07T03:29:28.282Z,100371.00
2023-03-07T03:31:56.001Z,100369.53
2023-03-07T03:34:23.769Z,100367.02
2023-03-07T03:36:52.054Z,100366.78
2023-03-07T03:39:19.980Z,100369.11
2023-03-07T03:41:47.820Z,100367.14
2023-03-07T03:44:15.686Z,100367.86
2023-03-07T03:46:43.463Z,100362.20
2023-03-07T03:49:13.837Z,100367.96
2023-03-07T03:51:41.658Z,100357.83
2023-03-07T03:54:09.451Z,100357.50
2023-03-07T03:56:37.215Z,100356.55
2023-03-07T03:59:05.037Z,100354.03
2023-03-07T04:01:32.836Z,100339.22
2023-03-07T04:04:00.780Z,100345.70
2023-03-07T04:06:30.250Z,100350.17
2023-03-07T04:08:58.140Z,100351.45
2023-03-07T04:11:26.046Z,100337.42
2023-03-07T04:13:53.976Z,100339.94
2023-03-07T04:16:23.632Z,100340.46
2023-03-07T04:18:52.238Z,100337.03
2023-03-07T04:21:20.196Z,100336.93
2023-03-07T04:23:50.655Z,100324.28
2023-03-07T04:26:18.392Z,100324.18
2023-03-07T04:28:46.210Z,100323.10
2023-03-07T04:31:18.190Z,100326.24
2023-03-07T04:33:46.060Z,100328.10
2023-03-07T04:36:14.340Z,100327.48
2023-03-07T04:38:43.379Z,100331.77
2023-03-07T04:41:15.386Z,100331.15
2023-03-07T04:43:43.124Z,100317.91
2023-03-07T04:46:11.514Z,100320.91
2023-03-07T04:48:39.268Z,100316.10
2023-03-07T04:51:07.314Z,100311.82
2023-03-07T04:53:35.013Z,100314.30
2023-03-07T04:56:03.819Z,100321.66
2023-03-07T04:58:31.895Z,100306.16
2023-03-07T05:01:00.271Z,100312.02
2023-03-07T05:03:29.789Z,100304.07
2023-03-07T05:05:57.542Z,100302.38
2023-03-07T05:08:25.840Z,100295.90
2023-03-07T05:10:54.002Z,100288.28
2023-03-07T05:13:21.886Z,100297.37
2023-03-07T05:15:53.749Z,100286.71
2023-03-07T05:18:21.518Z,100290.90
2023-03-07T05:20:49.377Z,100290.08
2023-03-07T05:23:17.498Z,100283.24
2023-03-07T05:25:45.287Z,100282.13
2023-03-07T05:28:13.182Z,100284.95
2023-03-07T05:30:40.913Z,100285.77
2023-03-07T05:33:08.693Z,100272.49
2023-03-07T05:35:36.486Z,100278.34
2023-03-07T05:38:04.288Z,100277.49
2023-03-07T05:40:32.137Z,100279.81
2023-03-07T05:42:59.942Z,100286.29
2023-03-07T05:45:27.872Z,100280.34
2023-03-07T05:47:55.681Z,100274.68
2023-03-07T05:50:23.634Z,100282.33
2023-03-07T05:52:51.449Z,100277.16
2023-03-07T05:55:19.613Z,100276.34
2023-03-07T05:57:47.446Z,100278.05
2023-03-07T06:00:17.114Z,100269.97
2023-03-07T06:02:44.984Z,100277.82
2023-03-07T06:05:12.782Z,100269.12
2023-03-07T06:07:40.568Z,100270.20
2023-03-07T06:10:08.834Z,100269.88
2023-03-07T06:12:36.694Z,100265.39
2023-03-07T06:15:04.817Z,100252.61
2023-03-07T06:17:32.578Z,100249.99
2023-03-07T06:20:00.382Z,100253.10
2023-03-07T06:22:28.951Z,100252.80
2023-03-07T06:24:56.701Z,100254.18
2023-03-07T06:27:24.449Z,100251.14
2023-03-07T06:29:52.263Z,100255.29
2023-03-07T06:32:20.071Z,100248.30
2023-03-07T06:34:48.048Z,100251.66
2023-03-07T06:37:15.850Z,100250.81
2023-03-07T06:39:43.674Z,100254.48
2023-03-07T06:42:11.427Z,100254.99
2023-03-07T06:44:39.333Z,100244.53
2023-03-07T06:47:07.164Z,100243.36
2023-03-07T06:49:34.955Z,100241.91
2023-03-07T06:52:02.751Z,100241.59
2023-03-07T06:54:30.556Z,100241.59
2023-03-07T06:56:58.289Z,100238.26
2023-03-07T06:59:25.983Z,100231.42
2023-03-07T07:01:53.858Z,100233.77
2023-03-07T07:04:21.744Z,100236.59
2023-03-07T07:06:49.530Z,100240.05
2023-03-07T07:09:17.371Z,100241.33
2023-03-07T07:11:45.131Z,100240.80
2023-03-07T07:14:12.936Z,100239.34
2023-03-07T07:16:40.777Z,100244.01
2023-03-07T07:19:08.698Z,100255.65
2023-03-07T07:21:36.590Z,100247.18
2023-03-07T07:24:04.586Z,100245.71
2023-03-07T07:26:32.545Z,100244.11
2023-03-07T07:29:00.404Z,100237.60
2023-03-07T07:31:28.246Z,100241.91
2023-03-07T07:33:56.052Z,100245.13
2023-03-07T07:36:24.944Z,100239.70
2023-03-07T07:38:52.890Z,100236.78
2023-03-07T07:41:20.750Z,100245.91
2023-03-07T07:43:49.570Z,100243.29
2023-03-07T07:46:17.541Z,100244.30
2023-03-07T07:48:47.277Z,100248.49
2023-03-07T07:51:15.142Z,100248.49
2023-03-07T07:53:43.012Z,100246.13
2023-03-07T07:56:10.872Z,100239.83
2023-03-07T07:58:38.672Z,100243.32
2023-03-07T08:01:15.639Z,100233.25
2023-03-07T08:03:43.471Z,100229.13
2023-03-07T08:06:11.254Z,100229.85
2023-03-07T08:08:39.176Z,100231.78
2023-03-07T08:11:07.101Z,100230.44
2023-03-07T08:13:34.969Z,100227.07
2023-03-07T08:16:12.827Z,100237.73
2023-03-07T08:18:40.635Z,100230.48
2023-03-07T08:21:08.854Z,100243.52
2023-03-07T08:23:37.439Z,100237.66
2023-03-07T08:26:09.915Z,100230.96
2023-03-07T08:28:38.469Z,100228.74
2023-03-07T08:31:14.572Z,100220.60
2023-03-07T08:33:42.437Z,100220.34
2023-03-07T08:36:10.381Z,100222.04
2023-03-07T08:38:38.125Z,100218.73
2023-03-07T08:41:07.290Z,100211.12
2023-03-07T08:43:35.768Z,100211.31
2023-03-07T08:46:03.761Z,100209.65
2023-03-07T08:48:31.512Z,100211.64
2023-03-07T08:50:59.369Z,100203.86
2023-03-07T08:53:27.529Z,100218.31
2023-03-07T08:55:55.623Z,100210.13
2023-03-07T08:58:23.790Z,100208.17
2023-03-07T09:00:51.658Z,100217.16
2023-03-07T09:03:19.608Z,100213.51
2023-03-07T09:05:47.659Z,100215.66
2023-03-07T09:08:15.648Z,100213.34
2023-03-07T09:10:43.499Z,100216.68
2023-03-07T09:13:11.755Z,100210.70
2023-03-07T09:15:41.089Z,100202.52
2023-03-07T09:18:09.619Z,100207.39
2023-03-07T09:20:39.074Z,100195.42
2023-03-07T09:23:07.526Z,100194.25
2023-03-07T09:25:35.319Z,100192.09
2023-03-07T09:28:03.124Z,100191.08
2023-03-07T09:30:30.949Z,100181.92
2023-03-07T09:32:58.768Z,100177.24
2023-03-07T09:35:26.991Z,100174.07
2023-03-07T09:37:54.752Z,100173.38
2023-03-07T09:40:24.667Z,100164.55
2023-03-07T09:43:07.223Z,100160.70
2023-03-07T09:45:48.387Z,100158.18
2023-03-07T09:48:37.730Z,100157.49
2023-03-07T09:51:18.220Z,100148.21
2023-03-07T09:53:56.664Z,100137.65
2023-03-07T09:56:42.735Z,100136.80
2023-03-07T09:59:50.655Z,100130.91
2023-03-07T10:02:27.268Z,100134.58
2023-03-07T10:05:05.494Z,100126.47
2023-03-07T10:07:33.712Z,100124.96
2023-03-07T10:10:03.204Z,100114.56
2023-03-07T10:13:06.269Z,100115.25
2023-03-07T10:15:43.582Z,100108.98
2023-03-07T10:18:39.071Z,100118.55
2023-03-07T10:21:26.907Z,100106.23
2023-03-07T10:24:25.998Z,100092.10
2023-03-07T10:27:09.672Z,100093.73
2023-03-07T10:29:43.789Z,100109.27
2023-03-07T10:32:22.828Z,100081.84
2023-03-07T10:35:17.400Z,100068.27
2023-03-07T10:37:53.289Z,100066.93
2023-03-07T10:40:22.496Z,100072.39
2023-03-07T10:42:51.095Z,100060.68
2023-03-07T10:45:25.404Z,100046.00
2023-03-07T10:47:53.299Z,100042.60
2023-03-07T10:50:47.373Z,100049.34
2023-03-07T10:53:32.736Z,100046.07
2023-03-07T10:56:14.840Z,100036.78
2023-03-07T10:59:03.985Z,100024.36
2023-03-07T11:01:33.301Z,100021.45
2023-03-07T11:04:23.171Z,100031.62
2023-03-07T11:07:01.897Z,100018.99
2023-03-07T11:09:33.908Z,100009.38
2023-03-07T11:12:13.453Z,100005.98
2023-03-07T11:14:55.132Z,100012.26
2023-03-07T11:17:40.694Z,100004.51
2023-03-07T11:20:50.481Z,100006.80
2023-03-07T11:23:19.486Z,99994.51
2023-03-07T11:25:47.556Z,99982.90
2023-03-07T11:28:29.448Z,99986.79
2023-03-07T11:31:06.308Z,99993.98
2023-03-07T11:33:53.043Z,99972.37
2023-03-07T11:36:33.675Z,99977.93
2023-03-07T11:39:05.265Z,99979.89
2023-03-07T11:41:41.486Z,99973.09
2023-03-07T11:44:27.348Z,99968.12
2023-03-07T11:47:14.001Z,99965.99
2023-03-07T11:50:02.339Z,99969.88
2023-03-07T11:52:36.446Z,99960.05
2023-03-07T11:55:30.843Z,99957.72
2023-03-07T11:58:20.534Z,99956.09
2023-03-07T12:01:00.546Z,99948.34
2023-03-07T12:03:31.816Z,99947.91
2023-03-07T12:06:29.996Z,99947.33
2023-03-07T12:09:01.037Z,99952.95
2023-03-07T12:12:08.458Z,99948.80
2023-03-07T12:14:54.805Z,99954.19
2023-03-07T12:17:37.964Z,99948.86
2023-03-07T12:20:08.968Z,99941.21
2023-03-07T12:23:00.883Z,99930.13
2023-03-07T12:25:37.009Z,99919.60
2023-03-07T12:28:23.056Z,99911.33
2023-03-07T12:30:54.368Z,99912.30
2023-03-07T12:33:29.474Z,99903.74
2023-03-07T12:36:06.126Z,99904.03
2023-03-07T12:38:54.600Z,99888.27
2023-03-07T12:41:25.108Z,99876.54
2023-03-07T12:43:58.372Z,99878.37
2023-03-07T12:46:42.167Z,99887.33
2023-03-07T12:49:37.889Z,99875.10
2023-03-07T12:52:16.601Z,99877.26
2023-03-07T12:55:03.289Z,99865.23
2023-03-07T12:57:41.273Z,99861.53
2023-03-07T13:00:10.607Z,99866.70
2023-03-07T13:02:59.518Z,99867.77
2023-03-07T13:05:27.494Z,99868.92
2023-03-07T13:07:55.732Z,99861.04
2023-03-07T13:10:24.796Z,99874.58
2023-03-07T13:12:53.448Z,99877.09
2023-03-07T13:15:22.334Z,99876.70
2023-03-07T13:17:50.304Z,99877.62
2023-03-07T13:20:20.773Z,99868.72
2023-03-07T13:22:48.831Z,99857.12
2023-03-07T13:25:50.461Z,99854.60
2023-03-07T13:28:35.120Z,99854.08
2023-03-07T13:31:18.837Z,99854.01
2023-03-07T13:33:47.007Z,99842.63
2023-03-07T13:36:48.298Z,99844.20
2023-03-07T13:39:38.495Z,99828.34
2023-03-07T13:42:09.472Z,99825.53
2023-03-07T13:44:41.970Z,99809.38
2023-03-07T13:47:42.016Z,99817.98
2023-03-07T13:50:37.850Z,99826.55
2023-03-07T13:53:15.932Z,99819.02
2023-03-07T13:55:47.950Z,99804.18
2023-03-07T13:58:38.864Z,99822.30
2023-03-07T14:01:14.175Z,99817.48
2023-03-07T14:03:46.240Z,99820.46
2023-03-07T14:06:19.802Z,99836.02
2023-03-07T14:08:47.956Z,99822.85
2023-03-07T14:11:47.006Z,99832.63
2023-03-07T14:50:20.135Z,99837.98
2023-03-07T14:52:48.142Z,99845.45
2023-03-07T14:55:19.300Z,99850.28
2023-03-07T14:57:50.687Z,99846.91
2023-03-07T15:00:21.586Z,99850.31
2023-03-07T15:02:59.450Z,99850.48
2023-03-07T15:05:32.314Z,99850.97
2023-03-07T15:08:00.224Z,99854.89
2023-03-07T15:10:43.391Z,99851.39
2023-03-07T15:13:48.250Z,99856.04
2023-03-07T15:16:36.735Z,99848.22
2023-03-07T15:19:16.707Z,99858.55
2023-03-07T15:21:46.591Z,99865.45
2023-03-07T15:24:19.657Z,99865.75
2023-03-07T15:26:52.630Z,99866.40
2023-03-07T15:29:24.802Z,99862.91
2023-03-07T15:32:00.270Z,99870.52
2023-03-07T15:34:36.107Z,99878.34
2023-03-07T15:37:35.139Z,99869.77
2023-03-07T15:40:03.003Z,99876.93
2023-03-07T15:42:31.139Z,99875.46
2023-03-07T15:45:03.362Z,99871.70
2023-03-07T15:47:32.382Z,99865.88
2023-03-07T15:50:01.916Z,99874.22
2023-03-07T15:52:37.374Z,99881.77
2023-03-07T15:55:26.797Z,99868.85
2023-03-07T15:58:00.125Z,99873.53
2023-03-07T16:00:28.157Z,99870.20
2023-03-07T16:02:58.567Z,99867.16
2023-03-07T16:05:26.465Z,99871.44
2023-03-07T16:07:59.437Z,99877.88
2023-03-07T16:10:29.648Z,99870.03
2023-03-07T16:12:57.668Z,99880.85
2023-03-07T16:15:25.626Z,99882.65
2023-03-07T16:17:56.276Z,99884.55
2023-03-07T16:20:28.426Z,99894.20
2023-03-07T16:22:56.415Z,99900.21
2023-03-07T16:25:24.741Z,99893.60
2023-03-07T16:27:58.140Z,99892.16
2023-03-07T16:30:27.508Z,99898.90
2023-03-07T16:32:55.789Z,99899.98
2023-03-07T16:35:27.445Z,99899.06
2023-03-07T16:37:55.627Z,99893.60
2023-03-07T16:40:24.175Z,99899.20
2023-03-07T16:42:52.095Z,99908.32
2023-03-07T16:45:27.556Z,99890.27
2023-03-07T16:47:57.809Z,99894.91
2023-03-07T16:50:27.595Z,99896.45
2023-03-07T16:52:55.452Z,99905.80
2023-03-07T16:55:24.534Z,99908.38
2023-03-07T16:57:57.490Z,99914.79
2023-03-07T17:00:26.166Z,99924.47
2023-03-07T17:02:54.926Z,99930.03
2023-03-07T17:05:27.465Z,99933.46
2023-03-07T17:07:56.084Z,99931.20
2023-03-07T17:10:24.506Z,99937.45
2023-03-07T17:12:52.403Z,99945.63
2023-03-07T17:15:23.101Z,99956.64
2023-03-07T17:17:51.098Z,99963.34
2023-03-07T17:20:21.523Z,99969.39
2023-03-07T17:22:49.989Z,99977.08
2023-03-07T17:25:18.041Z,100003.70
2023-03-07T17:28:00.987Z,99998.59
2023-03-07T17:30:30.295Z,99997.58
2023-03-07T17:32:58.534Z,100004.84
2023-03-07T17:35:26.667Z,100005.52
2023-03-07T17:37:54.871Z,100006.54
2023-03-07T17:40:23.149Z,100013.60
2023-03-07T17:42:52.215Z,100019.98
2023-03-07T17:45:20.298Z,100021.64
2023-03-07T17:47:55.252Z,100027.40
2023-03-07T17:50:26.623Z,100029.75
2023-03-07T17:52:55.181Z,100030.96
2023-03-07T17:55:25.614Z,100040.67
2023-03-07T17:57:53.454Z,100042.44
2023-03-07T18:00:22.377Z,100052.70
2023-03-07T18:02:50.474Z,100045.94
2023-03-07T18:05:18.990Z,100061.14
2023-03-07T18:07:46.936Z,100063.85
2023-03-07T18:10:14.906Z,100073.40
2023-03-07T18:12:42.756Z,100072.55
2023-03-07T18:15:15.098Z,100064.41
2023-03-07T18:17:48.283Z,100075.23
2023-03-07T18:20:20.612Z,100086.97
2023-03-07T18:22:48.856Z,100094.00
2023-03-07T18:25:17.022Z,100095.99
2023-03-07T18:27:45.238Z,100092.66
2023-03-07T18:30:13.925Z,100106.88
2023-03-07T18:32:41.896Z,100099.72
2023-03-07T18:35:10.198Z,100105.09
2023-03-07T18:37:38.213Z,100106.06
2023-03-07T18:40:06.621Z,100102.73
2023-03-07T18:42:35.028Z,100103.41
2023-03-07T18:45:03.396Z,100099.43
2023-03-07T18:47:31.229Z,100098.09
2023-03-07T18:49:59.188Z,100102.44
2023-03-07T18:52:27.029Z,100096.91
2023-03-07T18:54:55.018Z,100102.08
2023-03-07T18:57:22.805Z,100113.91
2023-03-07T18:59:52.300Z,100116.76
2023-03-07T19:02:20.183Z,100121.92
2023-03-07T19:04:48.050Z,100114.60
2023-03-07T19:07:15.981Z,100121.10
2023-03-07T19:09:45.292Z,100129.15
2023-03-07T19:12:13.941Z,100134.64
2023-03-07T19:14:41.896Z,100124.96
2023-03-07T19:17:09.731Z,100135.33
2023-03-07T19:19:37.704Z,100135.33
2023-03-07T19:22:05.476Z,100132.68
2023-03-07T19:24:33.849Z,100141.18
2023-03-07T19:27:01.675Z,100150.37
2023-03-07T19:29:29.644Z,100155.20
2023-03-07T19:31:57.672Z,100151.05
2023-03-07T19:34:25.525Z,100163.05
2023-03-07T19:36:53.495Z,100161.88
2023-03-07T19:39:21.801Z,100156.88
2023-03-07T19:41:49.590Z,100162.56
2023-03-07T19:44:17.770Z,100169.07
2023-03-07T19:46:48.426Z,100171.75
2023-03-07T19:49:17.520Z,100184.24
2023-03-07T19:51:45.612Z,100177.77
2023-03-07T19:54:14.770Z,100181.43
2023-03-07T19:56:43.821Z,100168.09
2023-03-07T19:59:12.198Z,100168.09
2023-03-07T20:01:40.120Z,100172.93
2023-03-07T20:04:08.953Z,100191.60
2023-03-07T20:06:36.932Z,100188.23
2023-03-07T20:09:05.120Z,100185.26
2023-03-07T20:11:34.311Z,100188.43
2023-03-07T20:14:04.625Z,100191.44
2023-03-07T20:16:33.689Z,100199.94
2023-03-07T20:19:03.526Z,100202.09
2023-03-07T20:21:31.749Z,100202.62
2023-03-07T20:24:00.702Z,100204.28
2023-03-07T20:26:33.731Z,100208.27
2023-03-07T20:29:02.469Z,100198.27
2023-03-07T20:31:30.621Z,100203.76
2023-03-07T20:34:01.803Z,100200.75
2023-03-07T20:36:31.320Z,100209.41
2023-03-07T20:39:00.670Z,100222.10
2023-03-07T20:41:30.343Z,100223.90
2023-03-07T20:44:02.787Z,100217.59
2023-03-07T20:46:31.555Z,100221.25
2023-03-07T20:49:07.608Z,100228.45
2023-03-07T20:51:36.590Z,100226.95
2023-03-07T20:54:15.104Z,100236.26
2023-03-07T20:56:43.603Z,100238.26
2023-03-07T20:59:19.279Z,100242.77
2023-03-07T21:01:47.391Z,100245.91
2023-03-07T21:04:18.825Z,100260.75
2023-03-07T21:06:47.015Z,100261.93
2023-03-07T21:09:15.966Z,100262.58
2023-03-07T21:11:46.286Z,100258.10
2023-03-07T21:14:15.680Z,100253.75
2023-03-07T21:16:45.292Z,100255.59
2023-03-07T21:19:13.637Z,100254.57
2023-03-07T21:21:42.180Z,100258.92
2023-03-07T21:24:10.309Z,100256.08
2023-03-07T21:26:38.553Z,100260.55
2023-03-07T21:29:06.710Z,100261.73
2023-03-07T21:31:36.780Z,100269.94
2023-03-07T21:34:06.552Z,100273.24
2023-03-07T21:36:34.710Z,100267.26
2023-03-07T21:39:03.186Z,100266.08
2023-03-07T21:41:31.175Z,100270.76
2023-03-07T21:43:59.389Z,100265.91
2023-03-07T21:46:27.372Z,100268.76
2023-03-07T21:48:56.047Z,100277.27
2023-03-07T21:51:24.340Z,100284.42
2023-03-07T21:53:52.327Z,100285.89
2023-03-07T21:56:21.655Z,100297.24
2023-03-07T21:58:50.870Z,100289.75
2023-03-07T22:01:21.322Z,100293.91
2023-03-07T22:03:50.044Z,100289.06
2023-03-07T22:06:18.300Z,100300.25
2023-03-07T22:08:46.256Z,100294.76
2023-03-07T22:11:14.321Z,100307.57
2023-03-07T22:13:42.606Z,100316.56
2023-03-07T22:16:15.501Z,100319.57
2023-03-07T22:18:43.537Z,100314.41
2023-03-07T22:21:14.798Z,100309.08
2023-03-07T22:23:43.049Z,100312.57
2023-03-07T22:26:11.929Z,100306.88
2023-03-07T22:28:41.663Z,100309.08
2023-03-07T22:31:11.337Z,100307.57
2023-03-07T22:33:39.480Z,100317.87
2023-03-07T22:36:08.198Z,100315.02
2023-03-07T22:38:36.395Z,100306.52
2023-03-07T22:41:09.212Z,100317.34
2023-03-07T22:43:37.236Z,100318.82
2023-03-07T22:46:05.667Z,100327.02
2023-03-07T22:48:34.649Z,100328.01
2023-03-07T22:51:02.825Z,100322.88
2023-03-07T22:53:32.206Z,100311.85
2023-03-07T22:56:00.737Z,100320.48
2023-03-07T22:58:29.392Z,100319.84
2023-03-07T23:00:57.267Z,100312.12
2023-03-07T23:03:25.179Z,100317.97
2023-03-07T23:05:53.132Z,100324.15
2023-03-07T23:08:21.885Z,100317.28
2023-03-07T23:10:49.759Z,100316.30
2023-03-07T23:13:17.604Z,100316.62
2023-03-07T23:15:45.522Z,100313.09
2023-03-07T23:18:13.410Z,100312.48
2023-03-07T23:20:41.416Z,100315.29
2023-03-07T23:23:12.176Z,100323.13
2023-03-07T23:25:43.337Z,100323.46
2023-03-07T23:28:11.499Z,100326.80
2023-03-07T23:30:41.139Z,100317.12
2023-03-07T23:33:09.142Z,100312.48
2023-03-07T23:35:37.231Z,100308.81
2023-03-07T23:38:05.469Z,100314.63
2023-03-07T23:40:33.944Z,100310.32
2023-03-07T23:43:03.005Z,100323.82
2023-03-07T23:45:31.118Z,100308.32
2023-03-07T23:47:59.011Z,100304.01
2023-03-07T23:50:27.181Z,100304.66
2023-03-07T23:52:55.084Z,100303.32
2023-03-07T23:55:23.222Z,100314.96
2023-03-07T23:57:51.322Z,100316.30
